Time;durP1;ratioP1;P1;durP2;ratioP2;P2;SDS_P1;SDS_P2;PMS_P1;PMS_P2;Temp;Humidity;BMP_temperature;BMP_pressure;BME280_temperature;BME280_humidity;BME280_pressure;Samples;Min_cycle;Max_cycle;Signal;HPM_P1;HPM_P2
2021/06/07 00:02:04;;;;;;;5.90;3.05;;;;;;;;;;5104965;27;20553;-37
2021/06/07 00:04:30;;;;;;;2.92;2.03;;;;;;;;;;5105012;27;20043;-38
2021/06/07 00:06:56;;;;;;;2.13;1.40;;;;;;;;;;5101519;27;20531;-38
2021/06/07 00:09:21;;;;;;;6.85;2.60;;;;;;;;;;5104398;27;20046;-37
2021/06/07 00:11:48;;;;;;;3.30;1.92;;;;;;;;;;5102059;27;20459;-37
2021/06/07 00:14:15;;;;;;;5.63;2.80;;;;;;;;;;5103111;27;20106;-38
2021/06/07 00:16:40;;;;;;;3.85;1.40;;;;;;;;;;5102605;27;20020;-38
2021/06/07 00:19:07;;;;;;;5.03;1.77;;;;;;;;;;5102519;27;20080;-37
2021/06/07 00:21:33;;;;;;;6.32;2.30;;;;;;;;;;5103447;27;20114;-37
2021/06/07 00:23:58;;;;;;;2.40;1.38;;;;;;;;;;5107732;27;20102;-37
2021/06/07 00:26:24;;;;;;;1.65;1.50;;;;;;;;;;5106923;27;20039;-38
2021/06/07 00:28:50;;;;;;;2.40;1.77;;;;;;;;;;5110090;27;20028;-37
2021/06/07 00:31:15;;;;;;;2.70;2.10;;;;;;;;;;5108855;27;20024;-38
2021/06/07 00:33:41;;;;;;;7.10;2.97;;;;;;;;;;5098468;27;20027;-38
2021/06/07 00:36:07;;;;;;;6.00;3.03;;;;;;;;;;5100795;27;20020;-37
2021/06/07 00:38:32;;;;;;;6.65;1.50;;;;;;;;;;5104552;27;20061;-37
2021/06/07 00:40:59;;;;;;;2.33;1.50;;;;;;;;;;5106252;27;20350;-38
2021/06/07 00:43:24;;;;;;;3.08;2.42;;;;;;;;;;5101261;27;20028;-37
2021/06/07 00:45:50;;;;;;;4.70;2.67;;;;;;;;;;5104237;27;20076;-37
2021/06/07 00:48:17;;;;;;;7.65;2.83;;;;;;;;;;5104597;27;20026;-37
2021/06/07 00:50:42;;;;;;;3.13;2.00;;;;;;;;;;5102226;27;20024;-37
2021/06/07 00:53:10;;;;;;;2.80;2.28;;;;;;;;;;5110114;27;20096;-37
2021/06/07 00:55:48;;;;;;;4.63;2.20;;;;;;;;;;5113367;27;20046;-38
2021/06/07 00:58:16;;;;;;;4.00;1.92;;;;;;;;;;5109405;27;20111;-37
2021/06/07 01:00:42;;;;;;;5.47;1.65;;;;;;;;;;5108272;27;20033;-38
2021/06/07 01:03:08;;;;;;;2.95;1.35;;;;;;;;;;5107859;27;20023;-38
2021/06/07 01:05:33;;;;;;;2.88;1.77;;;;;;;;;;5107576;27;20551;-37
2021/06/07 01:07:59;;;;;;;2.83;1.65;;;;;;;;;;5098725;28;20031;-39
2021/06/07 01:10:25;;;;;;;3.42;1.77;;;;;;;;;;5097199;27;20020;-36
2021/06/07 01:12:51;;;;;;;2.55;1.80;;;;;;;;;;5101353;27;20016;-37
2021/06/07 01:15:16;;;;;;;3.38;2.38;;;;;;;;;;5099035;27;20114;-37
2021/06/07 01:17:42;;;;;;;2.40;1.75;;;;;;;;;;5107568;27;20035;-36
2021/06/07 01:20:08;;;;;;;3.38;2.28;;;;;;;;;;5109906;27;20030;-36
2021/06/07 01:22:34;;;;;;;1.42;1.33;;;;;;;;;;5110645;27;20038;-37
2021/06/07 01:25:00;;;;;;;2.42;1.35;;;;;;;;;;5107692;27;20024;-36
2021/06/07 01:27:25;;;;;;;2.85;1.67;;;;;;;;;;5104151;27;20031;-36
2021/06/07 01:29:50;;;;;;;1.70;1.10;;;;;;;;;;5102113;27;20019;-36
2021/06/07 01:32:16;;;;;;;1.88;1.35;;;;;;;;;;5100857;27;20046;-36
2021/06/07 01:34:42;;;;;;;1.77;0.98;;;;;;;;;;5103624;27;20378;-37
2021/06/07 01:37:07;;;;;;;3.08;1.13;;;;;;;;;;5099457;27;20015;-37
2021/06/07 01:39:32;;;;;;;4.43;1.30;;;;;;;;;;5102065;27;20016;-36
2021/06/07 01:41:58;;;;;;;1.48;1.17;;;;;;;;;;5105652;27;20023;-36
2021/06/07 01:44:23;;;;;;;3.92;1.10;;;;;;;;;;5101452;27;20035;-36
2021/06/07 01:46:49;;;;;;;2.20;1.80;;;;;;;;;;5099060;27;20039;-36
2021/06/07 01:49:14;;;;;;;2.65;2.28;;;;;;;;;;5099864;27;20023;-36
2021/06/07 01:51:40;;;;;;;7.43;2.22;;;;;;;;;;5103273;27;20547;-36
2021/06/07 01:54:05;;;;;;;5.82;2.55;;;;;;;;;;5101721;27;20036;-37
2021/06/07 01:56:31;;;;;;;2.92;2.05;;;;;;;;;;5101446;27;20023;-36
2021/06/07 01:58:56;;;;;;;4.03;2.28;;;;;;;;;;5099714;27;20697;-36
2021/06/07 02:01:21;;;;;;;1.88;1.33;;;;;;;;;;5099781;27;20455;-36
2021/06/07 02:03:48;;;;;;;2.35;1.52;;;;;;;;;;5098969;28;20092;-37
2021/06/07 02:06:15;;;;;;;1.55;0.90;;;;;;;;;;5102436;27;20043;-36
2021/06/07 02:08:40;;;;;;;3.13;2.17;;;;;;;;;;5102947;27;20646;-37
2021/06/07 02:11:05;;;;;;;4.05;2.63;;;;;;;;;;5100469;27;20068;-36
2021/06/07 02:13:31;;;;;;;4.35;1.98;;;;;;;;;;5099921;27;20050;-36
2021/06/07 02:16:00;;;;;;;2.63;1.42;;;;;;;;;;5100640;27;20688;-36
2021/06/07 02:18:26;;;;;;;3.92;2.70;;;;;;;;;;5101367;27;20417;-36
2021/06/07 02:20:51;;;;;;;1.88;1.25;;;;;;;;;;5102331;27;20020;-37
2021/06/07 02:23:17;;;;;;;6.90;1.08;;;;;;;;;;5098715;27;20020;-36
2021/06/07 02:25:42;;;;;;;1.65;1.15;;;;;;;;;;5104687;27;20154;-36
2021/06/07 02:28:11;;;;;;;3.13;1.33;;;;;;;;;;5101789;27;20028;-36
2021/06/07 02:30:37;;;;;;;2.88;2.08;;;;;;;;;;5102844;27;20015;-36
2021/06/07 02:33:02;;;;;;;4.97;2.50;;;;;;;;;;5101434;28;20019;-36
2021/06/07 02:35:28;;;;;;;2.88;2.58;;;;;;;;;;5104646;27;20095;-36
2021/06/07 02:37:54;;;;;;;3.55;1.95;;;;;;;;;;5105080;27;20020;-37
2021/06/07 02:40:21;;;;;;;2.20;1.35;;;;;;;;;;5104315;27;20027;-38
2021/06/07 02:42:46;;;;;;;5.55;2.17;;;;;;;;;;5104892;27;20023;-37
2021/06/07 02:45:13;;;;;;;2.42;1.42;;;;;;;;;;5105045;27;20355;-37
2021/06/07 02:47:39;;;;;;;1.92;1.17;;;;;;;;;;5106094;27;20030;-37
2021/06/07 02:50:07;;;;;;;8.27;1.27;;;;;;;;;;5103566;27;20051;-38
2021/06/07 02:52:32;;;;;;;2.30;1.55;;;;;;;;;;5104260;27;20020;-37
2021/06/07 02:54:58;;;;;;;3.70;2.50;;;;;;;;;;5098264;27;20016;-38
2021/06/07 02:57:23;;;;;;;4.20;1.75;;;;;;;;;;5095056;28;20573;-40
2021/06/07 02:59:48;;;;;;;7.43;1.60;;;;;;;;;;5092360;28;20019;-37
2021/06/07 03:02:13;;;;;;;1.92;1.23;;;;;;;;;;5103611;27;20539;-37
2021/06/07 03:04:39;;;;;;;3.67;1.67;;;;;;;;;;5106334;27;20091;-37
2021/06/07 03:07:04;;;;;;;2.58;1.67;;;;;;;;;;5097169;27;20024;-38
2021/06/07 03:09:30;;;;;;;2.28;1.50;;;;;;;;;;5097248;27;20390;-37
2021/06/07 03:11:56;;;;;;;3.30;1.75;;;;;;;;;;5095360;28;20024;-37
2021/06/07 03:14:21;;;;;;;4.53;2.05;;;;;;;;;;5103324;27;20088;-37
2021/06/07 03:16:46;;;;;;;4.00;2.45;;;;;;;;;;5096497;28;20067;-38
2021/06/07 03:19:12;;;;;;;2.30;1.77;;;;;;;;;;5100226;28;20023;-38
2021/06/07 03:21:37;;;;;;;3.42;1.67;;;;;;;;;;5101869;28;20400;-37
2021/06/07 03:24:02;;;;;;;5.55;1.77;;;;;;;;;;5104597;27;20031;-37
2021/06/07 03:26:28;;;;;;;2.35;1.40;;;;;;;;;;5101673;28;20141;-37
2021/06/07 03:28:53;;;;;;;3.08;1.50;;;;;;;;;;5097738;28;20028;-38
2021/06/07 03:31:19;;;;;;;3.25;2.03;;;;;;;;;;5102848;28;20023;-37
2021/06/07 03:33:44;;;;;;;3.17;2.15;;;;;;;;;;5103508;28;20043;-37
2021/06/07 03:36:09;;;;;;;1.90;1.50;;;;;;;;;;5105980;28;20541;-38
2021/06/07 03:38:35;;;;;;;1.95;1.33;;;;;;;;;;5108517;28;20019;-37
2021/06/07 03:41:00;;;;;;;2.20;1.30;;;;;;;;;;5104295;27;20023;-38
2021/06/07 03:43:30;;;;;;;4.15;1.60;;;;;;;;;;5103156;28;20042;-38
2021/06/07 03:45:56;;;;;;;2.03;1.40;;;;;;;;;;5103857;28;20027;-38
2021/06/07 03:48:21;;;;;;;2.83;1.50;;;;;;;;;;5102538;28;20531;-38
2021/06/07 03:50:46;;;;;;;2.40;2.00;;;;;;;;;;5100126;28;20039;-38
2021/06/07 03:53:12;;;;;;;3.17;2.17;;;;;;;;;;5099223;27;20061;-39
2021/06/07 03:55:38;;;;;;;2.30;1.55;;;;;;;;;;5105989;28;20386;-39
2021/06/07 03:58:03;;;;;;;2.97;1.90;;;;;;;;;;5103226;28;20537;-38
2021/06/07 04:00:30;;;;;;;5.20;1.67;;;;;;;;;;5105461;28;20020;-38
2021/06/07 04:02:56;;;;;;;43.33;15.85;;;;;;;;;;5097656;28;20461;-38
2021/06/07 04:05:21;;;;;;;11.60;4.78;;;;;;;;;;5104142;28;20067;-38
2021/06/07 04:07:47;;;;;;;19.08;14.88;;;;;;;;;;5105917;27;20060;-38
2021/06/07 04:10:15;;;;;;;73.45;34.53;;;;;;;;;;5102653;27;20386;-38
2021/06/07 04:12:40;;;;;;;364.88;121.00;;;;;;;;;;5100892;28;20024;-39
2021/06/07 04:15:06;;;;;;;344.50;85.22;;;;;;;;;;5100335;28;20123;-38
2021/06/07 04:17:32;;;;;;;191.63;34.22;;;;;;;;;;5094072;28;20386;-38
2021/06/07 04:19:57;;;;;;;327.45;59.45;;;;;;;;;;5098748;28;20019;-39
2021/06/07 04:22:22;;;;;;;271.52;55.90;;;;;;;;;;5102160;27;20471;-38
2021/06/07 04:24:48;;;;;;;472.92;77.75;;;;;;;;;;5104098;27;20386;-38
2021/06/07 04:27:13;;;;;;;201.57;30.15;;;;;;;;;;5103153;27;20024;-39
2021/06/07 04:29:42;;;;;;;4.25;1.70;;;;;;;;;;5107173;27;20024;-39
2021/06/07 04:32:07;;;;;;;61.85;18.90;;;;;;;;;;5102164;27;20028;-38
2021/06/07 04:34:33;;;;;;;7.10;1.52;;;;;;;;;;5107898;27;20023;-38
2021/06/07 04:36:58;;;;;;;2.85;2.13;;;;;;;;;;5102967;27;20095;-38
2021/06/07 04:39:24;;;;;;;4.43;1.98;;;;;;;;;;5110746;27;20051;-39
2021/06/07 04:41:49;;;;;;;3.70;1.50;;;;;;;;;;5104786;27;20529;-39
2021/06/07 04:44:14;;;;;;;2.20;1.45;;;;;;;;;;5108373;27;20081;-39
2021/06/07 04:46:40;;;;;;;1.98;1.08;;;;;;;;;;5104601;27;20024;-38
2021/06/07 04:49:05;;;;;;;2.53;1.90;;;;;;;;;;5101316;27;20391;-38
2021/06/07 04:51:30;;;;;;;2.38;2.03;;;;;;;;;;5110032;27;20032;-39
2021/06/07 04:53:56;;;;;;;4.60;2.58;;;;;;;;;;5108492;27;20048;-38
2021/06/07 04:56:21;;;;;;;1.85;1.48;;;;;;;;;;5111434;27;20026;-38
2021/06/07 04:58:47;;;;;;;4.15;1.95;;;;;;;;;;5112572;27;20617;-38
2021/06/07 05:01:16;;;;;;;4.22;2.63;;;;;;;;;;5111264;27;20107;-39
2021/06/07 05:03:42;;;;;;;4.28;1.75;;;;;;;;;;5110754;27;20051;-39
2021/06/07 05:06:07;;;;;;;5.32;4.68;;;;;;;;;;5102626;27;20490;-39
2021/06/07 05:08:32;;;;;;;4.25;1.58;;;;;;;;;;5102379;27;20020;-38
2021/06/07 05:10:58;;;;;;;3.70;2.65;;;;;;;;;;5104884;27;20055;-41
2021/06/07 05:13:24;;;;;;;2.22;1.75;;;;;;;;;;5100475;27;20016;-40
2021/06/07 05:15:50;;;;;;;1.30;1.02;;;;;;;;;;5095211;27;20035;-38
2021/06/07 05:18:16;;;;;;;6.60;1.60;;;;;;;;;;5100851;27;20537;-38
2021/06/07 05:20:41;;;;;;;4.60;3.33;;;;;;;;;;5100827;27;20032;-39
2021/06/07 05:23:07;;;;;;;9.23;2.75;;;;;;;;;;5099147;27;20470;-38
2021/06/07 05:25:33;;;;;;;17.83;4.95;;;;;;;;;;5102031;28;20062;-38
2021/06/07 05:27:59;;;;;;;4.93;4.30;;;;;;;;;;5099635;27;20051;-38
2021/06/07 05:30:25;;;;;;;7.53;2.50;;;;;;;;;;5106420;27;20020;-39
2021/06/07 05:32:51;;;;;;;6.85;2.58;;;;;;;;;;5101492;27;20099;-38
2021/06/07 05:35:17;;;;;;;3.72;2.42;;;;;;;;;;5104014;27;20383;-38
2021/06/07 05:37:43;;;;;;;7.20;2.85;;;;;;;;;;5097942;27;20035;-38
2021/06/07 05:40:09;;;;;;;2.65;2.08;;;;;;;;;;5100111;27;20019;-38
2021/06/07 05:42:35;;;;;;;4.63;3.45;;;;;;;;;;5098755;27;20495;-40
2021/06/07 05:45:00;;;;;;;5.28;2.42;;;;;;;;;;5103545;27;20394;-40
2021/06/07 05:47:26;;;;;;;5.03;2.58;;;;;;;;;;5101804;27;20169;-39
2021/06/07 05:49:51;;;;;;;18.38;3.03;;;;;;;;;;5106690;27;20027;-39
2021/06/07 05:52:16;;;;;;;4.72;2.35;;;;;;;;;;5105984;27;20021;-39
2021/06/07 05:54:42;;;;;;;3.47;3.00;;;;;;;;;;5110954;27;20485;-39
2021/06/07 05:57:08;;;;;;;6.25;2.75;;;;;;;;;;5103641;27;20024;-39
2021/06/07 05:59:36;;;;;;;4.18;2.65;;;;;;;;;;5106136;27;20362;-39
2021/06/07 06:02:08;;;;;;;2.83;1.63;;;;;;;;;;5101913;27;20019;-38
2021/06/07 06:04:34;;;;;;;6.13;4.07;;;;;;;;;;5105752;27;20092;-38
2021/06/07 06:07:03;;;;;;;5.47;3.30;;;;;;;;;;5101618;27;20115;-40
2021/06/07 06:09:29;;;;;;;3.83;2.92;;;;;;;;;;5098261;27;20023;-39
2021/06/07 06:11:54;;;;;;;12.13;9.23;;;;;;;;;;5101505;27;20019;-40
2021/06/07 06:14:20;;;;;;;28.90;25.77;;;;;;;;;;5104121;27;20031;-39
2021/06/07 06:16:45;;;;;;;40.35;35.35;;;;;;;;;;5105754;27;20479;-38
2021/06/07 06:19:11;;;;;;;64.43;57.75;;;;;;;;;;5096941;27;20437;-38
2021/06/07 06:21:39;;;;;;;92.55;81.97;;;;;;;;;;5095613;27;20021;-39
2021/06/07 06:24:05;;;;;;;74.40;64.93;;;;;;;;;;5099950;27;20036;-40
2021/06/07 06:26:30;;;;;;;59.13;52.97;;;;;;;;;;5099464;27;20031;-39
2021/06/07 06:28:55;;;;;;;68.10;60.83;;;;;;;;;;5099404;27;20037;-38
2021/06/07 06:31:20;;;;;;;94.47;84.90;;;;;;;;;;5099056;27;20047;-39
2021/06/07 06:33:46;;;;;;;108.25;97.28;;;;;;;;;;5093385;27;20027;-38
2021/06/07 06:36:11;;;;;;;90.35;81.68;;;;;;;;;;5091881;27;20379;-39
2021/06/07 06:38:37;;;;;;;61.55;54.88;;;;;;;;;;5096588;27;20227;-39
2021/06/07 06:41:02;;;;;;;47.03;41.35;;;;;;;;;;5099151;27;20431;-39
2021/06/07 06:43:28;;;;;;;71.82;63.63;;;;;;;;;;5100732;27;20429;-39
2021/06/07 06:45:53;;;;;;;66.90;60.42;;;;;;;;;;5097904;27;20498;-39
2021/06/07 06:48:19;;;;;;;62.03;55.88;;;;;;;;;;5098307;27;20031;-38
2021/06/07 06:50:44;;;;;;;66.22;56.95;;;;;;;;;;5099969;27;20020;-39
2021/06/07 06:53:14;;;;;;;29.42;26.40;;;;;;;;;;5099521;27;20519;-39
2021/06/07 06:55:40;;;;;;;42.55;37.17;;;;;;;;;;5100179;27;20065;-40
2021/06/07 06:58:08;;;;;;;85.93;70.88;;;;;;;;;;5097604;27;20046;-39
2021/06/07 07:00:36;;;;;;;72.18;62.58;;;;;;;;;;5094973;28;20027;-38
2021/06/07 07:03:05;;;;;;;111.15;91.70;;;;;;;;;;5098391;27;20039;-38
2021/06/07 07:05:30;;;;;;;213.25;168.45;;;;;;;;;;5097439;27;20051;-39
2021/06/07 07:07:56;;;;;;;148.27;110.80;;;;;;;;;;5103216;27;20031;-39
2021/06/07 07:10:21;;;;;;;108.85;84.18;;;;;;;;;;5103920;27;20018;-39
2021/06/07 07:12:47;;;;;;;98.30;77.03;;;;;;;;;;5104128;27;20489;-38
2021/06/07 07:15:13;;;;;;;123.18;92.03;;;;;;;;;;5100129;27;20106;-38
2021/06/07 07:17:38;;;;;;;98.93;70.05;;;;;;;;;;5101245;27;20153;-40
2021/06/07 07:20:05;;;;;;;64.68;51.20;;;;;;;;;;5095878;28;20024;-38
2021/06/07 07:22:30;;;;;;;90.22;67.63;;;;;;;;;;5091987;28;20107;-39
2021/06/07 07:24:56;;;;;;;71.32;46.60;;;;;;;;;;5096364;28;20656;-38
2021/06/07 07:27:21;;;;;;;67.03;49.83;;;;;;;;;;5097771;28;20551;-41
2021/06/07 07:29:47;;;;;;;50.80;34.50;;;;;;;;;;5097307;27;20072;-39
2021/06/07 07:32:13;;;;;;;15.40;13.40;;;;;;;;;;5097984;28;20084;-40
2021/06/07 07:34:40;;;;;;;10.40;5.70;;;;;;;;;;5106002;27;20075;-39
2021/06/07 07:37:05;;;;;;;10.02;6.53;;;;;;;;;;5104430;28;20024;-39
2021/06/07 07:39:31;;;;;;;6.90;4.18;;;;;;;;;;5100492;28;20819;-39
2021/06/07 07:41:57;;;;;;;5.63;3.90;;;;;;;;;;5105059;28;20019;-39
2021/06/07 07:44:22;;;;;;;8.40;3.88;;;;;;;;;;5100679;28;20024;-39
2021/06/07 07:46:48;;;;;;;5.13;3.28;;;;;;;;;;5096956;27;20390;-40
2021/06/07 07:49:13;;;;;;;6.45;3.80;;;;;;;;;;5095777;28;20058;-40
2021/06/07 07:51:40;;;;;;;16.85;9.70;;;;;;;;;;5094138;28;20047;-42
2021/06/07 07:54:06;;;;;;;11.18;5.63;;;;;;;;;;5095871;28;20115;-40
2021/06/07 07:56:32;;;;;;;7.45;3.70;;;;;;;;;;5100325;27;20034;-44
2021/06/07 07:58:57;;;;;;;4.68;2.72;;;;;;;;;;5102082;27;20023;-41
2021/06/07 08:01:22;;;;;;;6.13;3.85;;;;;;;;;;5109851;27;20038;-38
2021/06/07 08:03:48;;;;;;;5.68;2.88;;;;;;;;;;5105025;27;20377;-44
2021/06/07 08:06:13;;;;;;;5.93;2.75;;;;;;;;;;5108687;27;20529;-47
2021/06/07 08:08:38;;;;;;;6.43;3.25;;;;;;;;;;5105534;27;20467;-45
2021/06/07 08:11:04;;;;;;;6.90;3.45;;;;;;;;;;5101891;27;20093;-44
2021/06/07 08:13:29;;;;;;;14.15;4.18;;;;;;;;;;5101268;27;20048;-48
2021/06/07 08:15:54;;;;;;;4.82;3.88;;;;;;;;;;5101241;27;20028;-45
2021/06/07 08:18:20;;;;;;;7.80;4.50;;;;;;;;;;5103314;27;20019;-49
2021/06/07 08:20:45;;;;;;;7.18;5.25;;;;;;;;;;5100302;27;20028;-44
2021/06/07 08:23:10;;;;;;;3.60;3.22;;;;;;;;;;5095689;27;20054;-44
2021/06/07 08:25:36;;;;;;;4.93;4.05;;;;;;;;;;5096508;27;20475;-45
2021/06/07 08:28:01;;;;;;;18.65;5.05;;;;;;;;;;5100395;27;20066;-49
2021/06/07 08:30:29;;;;;;;7.07;4.07;;;;;;;;;;5101963;27;20020;-45
2021/06/07 08:32:54;;;;;;;7.10;3.65;;;;;;;;;;5095252;27;20023;-46
2021/06/07 08:35:20;;;;;;;3.22;2.03;;;;;;;;;;5102145;27;20023;-46
2021/06/07 08:37:45;;;;;;;4.10;2.67;;;;;;;;;;5102185;27;20020;-48
2021/06/07 08:40:12;;;;;;;5.65;3.55;;;;;;;;;;5102566;27;20123;-45
2021/06/07 08:42:41;;;;;;;4.10;3.35;;;;;;;;;;5106461;27;20019;-47
2021/06/07 08:45:07;;;;;;;3.88;2.63;;;;;;;;;;5102349;27;20028;-48
2021/06/07 08:47:33;;;;;;;9.98;4.50;;;;;;;;;;5105491;27;20028;-46
2021/06/07 08:49:58;;;;;;;2.88;2.33;;;;;;;;;;5103832;27;20511;-47
2021/06/07 08:52:24;;;;;;;6.35;2.03;;;;;;;;;;5106094;27;20016;-50
2021/06/07 08:54:49;;;;;;;12.70;2.80;;;;;;;;;;5099840;27;20016;-48
2021/06/07 08:57:15;;;;;;;3.80;2.90;;;;;;;;;;5098426;27;20020;-42
2021/06/07 08:59:40;;;;;;;2.88;1.95;;;;;;;;;;5102285;27;20023;-43
2021/06/07 09:02:05;;;;;;;2.33;1.52;;;;;;;;;;5096860;27;20038;-43
2021/06/07 09:04:31;;;;;;;2.70;1.63;;;;;;;;;;5097544;27;20169;-42
2021/06/07 09:06:56;;;;;;;4.82;2.72;;;;;;;;;;5102013;27;20867;-48
2021/06/07 09:09:24;;;;;;;2.28;1.60;;;;;;;;;;5098266;27;20408;-44
2021/06/07 09:11:59;;;;;;;9.25;2.67;;;;;;;;;;5099205;27;20062;-42
2021/06/07 09:14:26;;;;;;;6.75;1.85;;;;;;;;;;5094771;27;20093;-45
2021/06/07 09:16:52;;;;;;;33.03;6.10;;;;;;;;;;5102253;27;20024;-43
2021/06/07 09:19:22;;;;;;;10.15;2.60;;;;;;;;;;5098879;27;20046;-42
2021/06/07 09:21:47;;;;;;;3.25;1.92;;;;;;;;;;5100590;27;20050;-43
2021/06/07 09:24:14;;;;;;;6.95;2.38;;;;;;;;;;5103554;27;20104;-43
2021/06/07 09:26:44;;;;;;;7.07;1.60;;;;;;;;;;5101072;27;20024;-46
2021/06/07 09:29:24;;;;;;;3.67;1.85;;;;;;;;;;5102612;27;20016;-47
2021/06/07 09:31:54;;;;;;;1.10;0.82;;;;;;;;;;5102216;27;20774;-48
2021/06/07 09:34:23;;;;;;;3.10;1.92;;;;;;;;;;5097731;27;20032;-47
2021/06/07 09:36:48;;;;;;;3.05;2.00;;;;;;;;;;5097822;27;20024;-46
2021/06/07 09:39:20;;;;;;;1.75;1.48;;;;;;;;;;5103798;27;20023;-46
2021/06/07 09:41:48;;;;;;;2.85;1.30;;;;;;;;;;5101869;27;20043;-44
2021/06/07 09:44:22;;;;;;;5.80;2.08;;;;;;;;;;5098623;27;20101;-46
2021/06/07 09:46:47;;;;;;;3.88;1.88;;;;;;;;;;5097142;27;20020;-45
2021/06/07 09:49:15;;;;;;;5.35;1.67;;;;;;;;;;5114430;27;20015;-42
2021/06/07 09:51:41;;;;;;;3.20;1.58;;;;;;;;;;5110926;27;20022;-48
2021/06/07 09:54:12;;;;;;;5.13;1.70;;;;;;;;;;5103090;27;20063;-46
2021/06/07 09:56:47;;;;;;;16.60;3.53;;;;;;;;;;5104846;27;20562;-45
2021/06/07 09:59:29;;;;;;;8.13;1.88;;;;;;;;;;5107251;27;20043;-45
2021/06/07 10:01:57;;;;;;;3.72;1.45;;;;;;;;;;5103183;27;20028;-45
2021/06/07 10:04:22;;;;;;;7.07;1.35;;;;;;;;;;5098108;27;20497;-43
2021/06/07 10:06:48;;;;;;;11.98;2.33;;;;;;;;;;5097526;27;20039;-45
2021/06/07 10:09:18;;;;;;;1.88;1.30;;;;;;;;;;5095514;27;20031;-44
2021/06/07 10:11:45;;;;;;;2.17;1.30;;;;;;;;;;5095864;28;20027;-48
2021/06/07 10:14:11;;;;;;;2.88;1.58;;;;;;;;;;5091904;27;20020;-44
2021/06/07 10:16:37;;;;;;;2.50;1.35;;;;;;;;;;5097939;27;20126;-47
2021/06/07 10:19:16;;;;;;;2.75;1.35;;;;;;;;;;5105007;27;20240;-48
2021/06/07 10:21:41;;;;;;;2.25;1.45;;;;;;;;;;5099926;27;20106;-47
2021/06/07 10:24:07;;;;;;;3.50;1.67;;;;;;;;;;5098579;27;20142;-47
2021/06/07 10:26:32;;;;;;;18.33;2.75;;;;;;;;;;5097354;27;20156;-47
2021/06/07 10:28:57;;;;;;;6.65;2.85;;;;;;;;;;5097466;27;20020;-48
2021/06/07 10:31:24;;;;;;;3.38;2.22;;;;;;;;;;5102255;27;20047;-47
2021/06/07 10:33:56;;;;;;;14.75;3.88;;;;;;;;;;5099719;27;20072;-48
2021/06/07 10:36:22;;;;;;;4.75;2.72;;;;;;;;;;5093394;27;20024;-51
2021/06/07 10:38:47;;;;;;;10.55;1.75;;;;;;;;;;5093175;27;20111;-50
2021/06/07 10:41:26;;;;;;;4.65;2.00;;;;;;;;;;5100400;28;20034;-47
2021/06/07 10:43:53;;;;;;;3.97;2.08;;;;;;;;;;5104381;27;20033;-53
2021/06/07 10:46:29;;;;;;;5.13;3.30;;;;;;;;;;5095964;27;20156;-51
2021/06/07 10:48:56;;;;;;;3.80;1.83;;;;;;;;;;5097928;28;20028;-46
2021/06/07 10:51:22;;;;;;;11.90;2.70;;;;;;;;;;5098009;27;20026;-49
2021/06/07 10:53:51;;;;;;;6.95;5.28;;;;;;;;;;5098427;27;20028;-51
2021/06/07 10:56:16;;;;;;;6.85;2.40;;;;;;;;;;5108695;27;20030;-50
2021/06/07 10:58:53;;;;;;;3.53;2.22;;;;;;;;;;5100586;27;20023;-48
2021/06/07 11:01:19;;;;;;;4.03;1.13;;;;;;;;;;5102146;27;20020;-54
2021/06/07 11:03:55;;;;;;;2.67;1.48;;;;;;;;;;5096368;27;20020;-51
2021/06/07 11:06:20;;;;;;;5.80;2.03;;;;;;;;;;5099509;27;20093;-49
2021/06/07 11:09:00;;;;;;;1.80;1.10;;;;;;;;;;5099291;27;20365;-52
2021/06/07 11:11:39;;;;;;;10.10;1.23;;;;;;;;;;5101498;27;20039;-53
2021/06/07 11:14:05;;;;;;;4.35;1.63;;;;;;;;;;5096344;28;20498;-46
2021/06/07 11:16:31;;;;;;;1.98;1.30;;;;;;;;;;5099993;27;20026;-48
2021/06/07 11:19:06;;;;;;;2.63;1.20;;;;;;;;;;5097279;27;20103;-47
2021/06/07 11:21:31;;;;;;;2.60;1.75;;;;;;;;;;5100432;28;20055;-44
2021/06/07 11:23:57;;;;;;;3.63;1.90;;;;;;;;;;5098809;28;20463;-46
2021/06/07 11:26:37;;;;;;;2.40;1.50;;;;;;;;;;5096365;28;20175;-46
2021/06/07 11:29:02;;;;;;;4.65;2.20;;;;;;;;;;5097492;28;20328;-45
2021/06/07 11:31:34;;;;;;;1.92;1.23;;;;;;;;;;5097624;28;20479;-46
2021/06/07 11:33:59;;;;;;;3.75;1.77;;;;;;;;;;5094491;28;20020;-46
2021/06/07 11:36:41;;;;;;;4.78;1.92;;;;;;;;;;5097663;28;20072;-45
2021/06/07 11:39:08;;;;;;;13.18;2.20;;;;;;;;;;5100792;28;20394;-50
2021/06/07 11:41:45;;;;;;;7.50;1.52;;;;;;;;;;5097866;28;20015;-47
2021/06/07 11:44:12;;;;;;;10.63;1.92;;;;;;;;;;5099408;28;20031;-45
2021/06/07 11:46:40;;;;;;;8.05;1.83;;;;;;;;;;5096334;28;20034;-45
2021/06/07 11:49:11;;;;;;;3.78;2.20;;;;;;;;;;5097670;28;20030;-44
2021/06/07 11:51:37;;;;;;;6.03;1.67;;;;;;;;;;5095582;28;20494;-49
2021/06/07 11:54:21;;;;;;;5.68;2.30;;;;;;;;;;5096888;28;20047;-47
2021/06/07 11:56:56;;;;;;;20.23;4.50;;;;;;;;;;5100235;28;20032;-45
2021/06/07 11:59:22;;;;;;;11.23;4.18;;;;;;;;;;5095178;28;20432;-44
2021/06/07 12:01:48;;;;;;;22.02;3.78;;;;;;;;;;5095297;28;20027;-43
2021/06/07 12:04:21;;;;;;;4.28;1.02;;;;;;;;;;5099021;28;20095;-45
2021/06/07 12:06:47;;;;;;;2.55;1.45;;;;;;;;;;5108632;27;20023;-46
2021/06/07 12:09:12;;;;;;;2.88;0.70;;;;;;;;;;5104208;28;20024;-48
2021/06/07 12:11:37;;;;;;;2.28;1.10;;;;;;;;;;5097583;28;20023;-49
2021/06/07 12:14:03;;;;;;;7.15;3.78;;;;;;;;;;5098062;28;20019;-48
2021/06/07 12:16:36;;;;;;;10.45;1.80;;;;;;;;;;5099869;28;20032;-48
2021/06/07 12:19:06;;;;;;;9.20;4.35;;;;;;;;;;5099343;28;20024;-47
2021/06/07 12:21:32;;;;;;;4.68;1.85;;;;;;;;;;5097931;28;20095;-49
2021/06/07 12:24:19;;;;;;;2.10;1.13;;;;;;;;;;5096561;28;20575;-50
2021/06/07 12:29:35;;;;;;;2.47;1.33;;;;;;;;;;5094366;28;20105;-49
2021/06/07 12:32:10;;;;;;;10.38;2.25;;;;;;;;;;5102822;28;20041;-51
2021/06/07 12:34:36;;;;;;;11.18;3.15;;;;;;;;;;5094737;28;20016;-51
2021/06/07 12:37:02;;;;;;;6.15;3.00;;;;;;;;;;5099435;28;20912;-48
2021/06/07 12:39:27;;;;;;;4.35;2.08;;;;;;;;;;5097673;28;20038;-59
2021/06/07 12:41:53;;;;;;;6.07;2.25;;;;;;;;;;5094232;28;20034;-59
2021/06/07 12:44:25;;;;;;;10.95;3.45;;;;;;;;;;5099927;27;20023;-58
2021/06/07 12:46:55;;;;;;;9.43;2.10;;;;;;;;;;5102433;27;20043;-59
2021/06/07 12:49:27;;;;;;;2.45;1.70;;;;;;;;;;5101535;27;20015;-58
2021/06/07 12:51:59;;;;;;;5.32;2.15;;;;;;;;;;5102949;27;20058;-58
2021/06/07 12:54:27;;;;;;;3.50;2.45;;;;;;;;;;5100475;27;20028;-59
2021/06/07 12:56:52;;;;;;;4.70;1.85;;;;;;;;;;5102270;27;20031;-58
2021/06/07 12:59:17;;;;;;;5.53;1.40;;;;;;;;;;5102237;27;20084;-58
2021/06/07 13:01:47;;;;;;;1.83;1.40;;;;;;;;;;5102618;27;20530;-59
2021/06/07 13:04:15;;;;;;;3.55;1.85;;;;;;;;;;5099538;27;20195;-58
2021/06/07 13:06:50;;;;;;;8.63;2.58;;;;;;;;;;5098510;27;20031;-59
2021/06/07 13:09:16;;;;;;;3.00;2.08;;;;;;;;;;5102929;27;20259;-59
2021/06/07 13:11:43;;;;;;;10.10;5.03;;;;;;;;;;5107337;27;20467;-60
2021/06/07 13:14:29;;;;;;;5.38;3.03;;;;;;;;;;5105561;27;20437;-58
2021/06/07 13:16:59;;;;;;;4.43;1.75;;;;;;;;;;5100324;27;20105;-59
2021/06/07 13:19:26;;;;;;;3.95;1.45;;;;;;;;;;5098629;27;20054;-58
2021/06/07 13:21:56;;;;;;;7.57;2.90;;;;;;;;;;5101194;27;20035;-57
2021/06/07 13:24:24;;;;;;;10.65;1.63;;;;;;;;;;5099942;27;20019;-58
2021/06/07 13:26:53;;;;;;;3.58;2.28;;;;;;;;;;5097962;27;20081;-58
2021/06/07 13:29:25;;;;;;;3.63;1.85;;;;;;;;;;5103416;27;20041;-56
2021/06/07 13:31:54;;;;;;;3.83;1.60;;;;;;;;;;5101406;27;20011;-57
2021/06/07 13:34:27;;;;;;;2.72;1.13;;;;;;;;;;5098723;27;20070;-57
2021/06/07 13:37:03;;;;;;;6.57;2.35;;;;;;;;;;5101398;27;20034;-58
2021/06/07 13:39:28;;;;;;;4.20;3.30;;;;;;;;;;5104755;27;20035;-57
2021/06/07 13:41:54;;;;;;;2.97;1.98;;;;;;;;;;5105211;27;20023;-57
2021/06/07 13:44:19;;;;;;;1.85;1.25;;;;;;;;;;5104043;27;20028;-57
2021/06/07 13:46:44;;;;;;;3.55;1.48;;;;;;;;;;5101657;27;20061;-57
2021/06/07 13:49:15;;;;;;;4.00;1.40;;;;;;;;;;5100216;27;20030;-57
2021/06/07 13:51:41;;;;;;;4.68;1.88;;;;;;;;;;5097077;27;20016;-57
2021/06/07 13:54:08;;;;;;;2.80;1.45;;;;;;;;;;5099981;27;20072;-57
2021/06/07 13:56:35;;;;;;;5.78;1.85;;;;;;;;;;5098112;27;20066;-57
2021/06/07 13:59:00;;;;;;;2.92;1.27;;;;;;;;;;5103598;27;20054;-57
2021/06/07 14:01:34;;;;;;;4.22;2.28;;;;;;;;;;5102349;27;20470;-57
2021/06/07 14:04:00;;;;;;;6.22;1.45;;;;;;;;;;5099495;27;20019;-57
2021/06/07 14:06:25;;;;;;;1.63;1.08;;;;;;;;;;5099138;27;20044;-57
2021/06/07 14:08:55;;;;;;;6.85;1.80;;;;;;;;;;5101590;27;20015;-55
2021/06/07 14:11:23;;;;;;;3.43;1.13;;;;;;;;;;5103447;27;20015;-57
2021/06/07 14:13:49;;;;;;;3.55;1.63;;;;;;;;;;5100328;27;20072;-58
2021/06/07 14:16:15;;;;;;;6.40;2.35;;;;;;;;;;5094546;27;20020;-56
2021/06/07 14:18:40;;;;;;;2.28;1.00;;;;;;;;;;5099584;27;20015;-56
2021/06/07 14:21:09;;;;;;;6.43;2.17;;;;;;;;;;5106245;27;20107;-57
2021/06/07 14:26:19;;;;;;;3.67;1.85;;;;;;;;;;5109112;27;20543;-57
2021/06/07 14:28:45;;;;;;;1.23;1.02;;;;;;;;;;5100735;27;20063;-57
2021/06/07 14:31:12;;;;;;;10.00;1.23;;;;;;;;;;5101649;27;20457;-57
2021/06/07 14:33:37;;;;;;;4.03;1.90;;;;;;;;;;5094996;27;20024;-55
2021/06/07 14:36:04;;;;;;;3.78;1.30;;;;;;;;;;5099169;27;20104;-57
2021/06/07 14:38:29;;;;;;;3.72;1.05;;;;;;;;;;5101586;27;20115;-57
2021/06/07 14:40:57;;;;;;;3.75;1.83;;;;;;;;;;5098876;27;20599;-57
2021/06/07 14:43:23;;;;;;;6.30;2.08;;;;;;;;;;5098613;27;20024;-57